Time;durP1;ratioP1;P1;durP2;ratioP2;P2;SDS_P1;SDS_P2;PMS_P1;PMS_P2;Temp;Humidity;BMP_temperature;BMP_pressure;BME280_temperature;BME280_humidity;BME280_pressure;Samples;Min_cycle;Max_cycle;Signal;HPM_P1;HPM_P2
2023/04/03 00:01:00;;;;;;;3.00;2.80;;;17.40;47.80;;;;;;5109502;28;20444;-80
2023/04/03 00:03:28;;;;;;;3.57;2.63;;;17.30;47.80;;;;;;5114277;28;20433;-77
2023/04/03 00:05:56;;;;;;;4.37;3.97;;;17.30;47.70;;;;;;5116751;28;20471;-80
2023/04/03 00:08:26;;;;;;;4.00;3.30;;;17.30;47.80;;;;;;5114513;28;20528;-80
2023/04/03 00:10:53;;;;;;;4.80;3.87;;;17.20;47.70;;;;;;5110092;28;20483;-81
2023/04/03 00:13:21;;;;;;;3.80;3.40;;;17.20;47.80;;;;;;5115759;27;20447;-81
2023/04/03 00:15:49;;;;;;;3.60;3.30;;;17.20;47.80;;;;;;5117284;28;20510;-81
2023/04/03 00:18:17;;;;;;;4.90;3.40;;;17.10;47.50;;;;;;5111017;27;20478;-81
2023/04/03 00:20:45;;;;;;;4.37;3.40;;;17.10;47.80;;;;;;5117285;28;20439;-81
2023/04/03 00:23:13;;;;;;;5.20;3.93;;;17.00;47.80;;;;;;5117393;28;20439;-81
2023/04/03 00:25:42;;;;;;;3.40;3.10;;;17.00;48.50;;;;;;5115061;27;20455;-81
2023/04/03 00:28:10;;;;;;;6.87;4.30;;;17.10;47.90;;;;;;5116545;28;20451;-81
2023/04/03 00:30:38;;;;;;;4.03;3.63;;;17.00;47.80;;;;;;5116046;28;20464;-81
2023/04/03 00:33:06;;;;;;;4.93;3.77;;;17.00;47.80;;;;;;5113605;28;20439;-80
2023/04/03 00:35:35;;;;;;;9.53;4.50;;;16.90;47.70;;;;;;5115409;28;20462;-80
2023/04/03 00:38:03;;;;;;;4.23;3.83;;;16.90;47.70;;;;;;5118664;28;20562;-81
2023/04/03 00:40:34;;;;;;;4.60;3.87;;;16.90;47.70;;;;;;5117099;27;20446;-80
2023/04/03 00:43:09;;;;;;;19.53;12.30;;;16.80;47.60;;;;;;5118461;27;20439;-81
2023/04/03 00:45:38;;;;;;;30.17;19.70;;;16.80;47.80;;;;;;5118877;27;20451;-81
2023/04/03 00:48:07;;;;;;;33.70;21.40;;;16.80;47.80;;;;;;5115829;28;20549;-80
2023/04/03 00:50:36;;;;;;;46.00;25.60;;;16.80;47.80;;;;;;5119787;27;20545;-81
2023/04/03 00:53:05;;;;;;;41.20;23.80;;;16.80;47.80;;;;;;5108843;28;20456;-81
2023/04/03 00:55:33;;;;;;;43.50;27.07;;;16.70;47.90;;;;;;5119359;27;20458;-80
2023/04/03 00:58:01;;;;;;;44.67;27.80;;;16.70;47.80;;;;;;5122300;28;20454;-81
2023/04/03 01:00:30;;;;;;;41.60;26.40;;;16.70;47.90;;;;;;5122455;27;20447;-81
2023/04/03 01:02:58;;;;;;;45.30;28.30;;;16.60;47.70;;;;;;5122034;28;20448;-81
2023/04/03 01:05:26;;;;;;;45.10;28.07;;;16.60;48.40;;;;;;5114456;28;20463;-81
2023/04/03 01:07:55;;;;;;;51.20;31.00;;;16.60;47.80;;;;;;5120426;28;20459;-81
2023/04/03 01:10:23;;;;;;;48.93;28.97;;;16.60;47.80;;;;;;5120144;28;20467;-81
2023/04/03 01:12:51;;;;;;;52.97;32.03;;;16.50;47.80;;;;;;5123526;27;20445;-81
2023/04/03 01:15:22;;;;;;;52.73;30.87;;;16.50;47.70;;;;;;5115384;27;20435;-80
2023/04/03 01:17:52;;;;;;;54.60;30.77;;;16.50;47.70;;;;;;5114002;28;20560;-81
2023/04/03 01:21:09;;;;;;;46.97;28.17;;;16.50;47.70;;;;;;5114912;28;20515;-80
2023/04/03 01:23:49;;;;;;;47.63;28.77;;;16.40;47.80;;;;;;5109819;28;20889;-80
2023/04/03 01:26:17;;;;;;;48.77;30.10;;;16.40;47.90;;;;;;5109187;28;20444;-80
2023/04/03 01:28:45;;;;;;;46.57;28.80;;;16.40;47.90;;;;;;5115072;28;20471;-79
2023/04/03 01:31:16;;;;;;;48.40;28.87;;;16.40;47.90;;;;;;5117147;28;20463;-81
2023/04/03 01:33:46;;;;;;;46.27;27.17;;;16.30;47.80;;;;;;5117398;28;20442;-81
2023/04/03 01:36:15;;;;;;;45.80;27.00;;;16.30;47.90;;;;;;5116928;27;20459;-81
2023/04/03 01:38:44;;;;;;;45.77;26.23;;;16.30;47.80;;;;;;5114623;28;20468;-80
2023/04/03 01:41:12;;;;;;;41.33;26.33;;;16.20;47.80;;;;;;5117546;27;20444;-83
2023/04/03 01:43:40;;;;;;;40.57;24.87;;;16.20;47.80;;;;;;5112106;28;20434;-81
2023/04/03 01:46:08;;;;;;;40.70;25.23;;;16.20;47.90;;;;;;5117459;28;20443;-81
2023/04/03 01:48:36;;;;;;;40.30;24.27;;;16.20;47.90;;;;;;5116500;28;20459;-80
2023/04/03 01:51:06;;;;;;;37.10;22.47;;;16.20;48.00;;;;;;5107091;28;20470;-81
2023/04/03 01:53:34;;;;;;;36.50;22.47;;;16.20;47.90;;;;;;5116815;28;20444;-80
2023/04/03 01:56:02;;;;;;;38.33;23.43;;;16.10;47.90;;;;;;5116676;28;20456;-80
2023/04/03 01:58:31;;;;;;;36.67;23.17;;;16.10;47.70;;;;;;5110577;27;20469;-80
2023/04/03 02:00:59;;;;;;;36.00;22.40;;;16.00;48.00;;;;;;5107604;28;20502;-80
2023/04/03 02:03:30;;;;;;;34.93;21.77;;;16.10;47.90;;;;;;5117500;27;20440;-81
2023/04/03 02:05:59;;;;;;;33.80;20.17;;;16.10;48.00;;;;;;5115880;28;20688;-80
2023/04/03 02:08:28;;;;;;;35.40;20.57;;;16.00;47.70;;;;;;5115919;27;20460;-80
2023/04/03 02:10:57;;;;;;;33.23;20.77;;;16.00;47.90;;;;;;5116604;28;20471;-81
2023/04/03 02:13:25;;;;;;;32.10;19.40;;;16.00;47.90;;;;;;5117966;28;20423;-81
2023/04/03 02:15:53;;;;;;;28.40;18.40;;;16.00;48.00;;;;;;5124935;28;20447;-81
2023/04/03 02:18:21;;;;;;;30.53;18.13;;;15.90;47.90;;;;;;5122284;27;20547;-81
2023/04/03 02:20:49;;;;;;;28.20;17.60;;;15.90;47.80;;;;;;5125953;28;20435;-81
2023/04/03 02:23:17;;;;;;;23.60;15.67;;;15.90;47.90;;;;;;5125004;27;20454;-78
2023/04/03 02:25:48;;;;;;;26.97;16.40;;;15.90;48.00;;;;;;5122738;27;20449;-80
2023/04/03 02:28:16;;;;;;;26.23;16.50;;;15.80;47.90;;;;;;5119662;28;20493;-80
2023/04/03 02:30:45;;;;;;;23.60;15.37;;;15.80;47.90;;;;;;5110520;28;20464;-80
2023/04/03 02:33:13;;;;;;;22.23;14.87;;;15.80;48.10;;;;;;5106786;28;20459;-78
2023/04/03 02:35:41;;;;;;;25.17;15.17;;;15.80;48.10;;;;;;5116333;28;20531;-78
2023/04/03 02:38:12;;;;;;;21.73;14.10;;;15.80;48.00;;;;;;5120511;27;21001;-81
2023/04/03 02:40:41;;;;;;;21.50;13.30;;;15.70;47.80;;;;;;5119602;27;20438;-81
2023/04/03 02:43:11;;;;;;;21.43;13.63;;;15.70;48.00;;;;;;5117814;28;20440;-80
2023/04/03 02:45:39;;;;;;;21.20;13.10;;;15.70;47.90;;;;;;5116042;27;20439;-79
2023/04/03 02:48:07;;;;;;;21.30;12.53;;;15.70;47.90;;;;;;5109651;28;20459;-81
2023/04/03 02:50:36;;;;;;;17.50;11.63;;;15.70;48.10;;;;;;5116525;27;20435;-80
2023/04/03 02:53:04;;;;;;;23.07;11.83;;;15.70;47.90;;;;;;5117061;27;20508;-81
2023/04/03 02:55:32;;;;;;;17.53;11.20;;;15.70;48.00;;;;;;5116997;28;20534;-81
2023/04/03 02:58:00;;;;;;;18.53;11.57;;;15.60;48.00;;;;;;5112613;27;20477;-80
2023/04/03 03:00:30;;;;;;;16.93;11.13;;;15.60;47.80;;;;;;5116402;27;20482;-79
2023/04/03 03:02:58;;;;;;;16.53;10.43;;;15.60;48.00;;;;;;5117015;27;20446;-80
2023/04/03 03:05:27;;;;;;;15.57;10.67;;;15.50;47.90;;;;;;5116580;28;20500;-79
2023/04/03 03:07:55;;;;;;;14.33;9.80;;;15.50;47.90;;;;;;5112781;28;20464;-80
2023/04/03 03:10:23;;;;;;;16.67;9.67;;;15.50;47.90;;;;;;5115828;28;20443;-78
2023/04/03 03:12:51;;;;;;;15.90;9.63;;;15.50;47.80;;;;;;5118110;28;20566;-80
2023/04/03 03:15:19;;;;;;;16.40;9.53;;;15.50;48.00;;;;;;5117246;27;20512;-80
2023/04/03 03:17:49;;;;;;;13.50;9.00;;;15.40;48.00;;;;;;5118254;28;20470;-81
2023/04/03 03:20:17;;;;;;;13.00;8.67;;;15.40;48.00;;;;;;5113319;28;20452;-80
2023/04/03 03:22:45;;;;;;;11.00;8.00;;;15.40;48.00;;;;;;5117503;27;20431;-81
2023/04/03 03:25:13;;;;;;;12.83;8.17;;;15.40;48.00;;;;;;5111306;27;20448;-80
2023/04/03 03:27:41;;;;;;;13.37;8.60;;;15.30;47.90;;;;;;5116343;27;21083;-81
2023/04/03 03:30:10;;;;;;;12.27;8.43;;;15.30;47.90;;;;;;5117062;28;20440;-81
2023/04/03 03:32:38;;;;;;;10.63;6.90;;;15.30;48.10;;;;;;5117013;28;20478;-80
2023/04/03 03:35:08;;;;;;;11.10;7.50;;;15.30;47.90;;;;;;5112398;28;20463;-81
2023/04/03 03:37:36;;;;;;;10.00;6.93;;;15.30;48.00;;;;;;5121982;27;20523;-81
2023/04/03 03:40:05;;;;;;;11.13;7.53;;;15.20;48.00;;;;;;5120269;27;20492;-80
2023/04/03 03:42:33;;;;;;;10.43;7.40;;;15.30;48.00;;;;;;5108427;28;20454;-81
2023/04/03 03:45:01;;;;;;;9.93;7.00;;;15.30;47.90;;;;;;5116052;27;20532;-80
2023/04/03 03:47:29;;;;;;;8.37;6.47;;;15.30;47.90;;;;;;5116874;27;20515;-80
2023/04/03 03:49:57;;;;;;;9.63;6.73;;;15.20;47.80;;;;;;5116267;28;20479;-80
2023/04/03 03:52:27;;;;;;;11.67;6.83;;;15.20;47.90;;;;;;5115723;27;20500;-80
2023/04/03 03:54:55;;;;;;;9.43;6.60;;;15.20;48.00;;;;;;5116139;28;20966;-79
2023/04/03 03:57:24;;;;;;;8.30;6.10;;;15.20;48.00;;;;;;5113826;28;20458;-80
2023/04/03 03:59:52;;;;;;;8.90;6.37;;;15.20;48.00;;;;;;5115146;27;20444;-79
2023/04/03 04:02:20;;;;;;;9.30;5.90;;;15.10;47.70;;;;;;5116142;28;20528;-80
2023/04/03 04:04:49;;;;;;;9.70;6.00;;;15.10;48.00;;;;;;5115518;27;20486;-80
2023/04/03 04:07:17;;;;;;;8.23;5.50;;;15.10;47.90;;;;;;5115497;27;20458;-80
2023/04/03 04:09:47;;;;;;;6.87;5.17;;;15.10;47.90;;;;;;5113266;28;20452;-80
2023/04/03 04:12:15;;;;;;;7.53;5.33;;;15.00;48.00;;;;;;5114008;28;20471;-79
2023/04/03 04:14:46;;;;;;;7.43;5.03;;;15.00;47.80;;;;;;5113722;28;20450;-79
2023/04/03 04:17:14;;;;;;;5.20;4.43;;;15.00;47.80;;;;;;5107518;28;20448;-79
2023/04/03 04:19:42;;;;;;;5.40;4.43;;;15.00;48.00;;;;;;5120753;27;20443;-81
2023/04/03 04:22:10;;;;;;;5.10;4.30;;;15.00;47.90;;;;;;5129573;28;20433;-80
2023/04/03 04:24:38;;;;;;;6.13;4.83;;;15.00;48.00;;;;;;5118540;28;20512;-81
2023/04/03 04:27:08;;;;;;;5.67;4.30;;;14.90;47.90;;;;;;5109057;28;20459;-80
2023/04/03 04:29:37;;;;;;;6.00;4.57;;;14.90;48.00;;;;;;5116105;28;20436;-79
2023/04/03 04:32:05;;;;;;;6.30;4.47;;;14.90;48.10;;;;;;5111125;28;20518;-80
2023/04/03 04:34:32;;;;;;;5.60;4.10;;;14.90;48.00;;;;;;5111083;28;20456;-80
2023/04/03 04:37:00;;;;;;;4.70;4.00;;;14.90;48.00;;;;;;5116137;28;20439;-79
2023/04/03 04:39:29;;;;;;;4.90;3.70;;;14.90;48.10;;;;;;5112804;28;20498;-80
2023/04/03 04:41:56;;;;;;;5.53;3.80;;;14.80;48.00;;;;;;5118162;28;20428;-80
2023/04/03 04:44:26;;;;;;;5.00;3.90;;;14.80;48.10;;;;;;5120144;28;20432;-80
2023/04/03 04:46:54;;;;;;;5.37;3.77;;;14.80;47.90;;;;;;5117111;27;20440;-81
2023/04/03 04:49:22;;;;;;;5.57;3.77;;;14.80;48.10;;;;;;5115752;28;20487;-80
2023/04/03 04:51:50;;;;;;;5.27;3.93;;;14.80;47.80;;;;;;5120804;28;20464;-80
2023/04/03 04:54:19;;;;;;;4.20;3.47;;;14.80;48.20;;;;;;5117775;27;20483;-79
2023/04/03 04:56:47;;;;;;;4.93;3.83;;;14.80;48.10;;;;;;5121864;27;20543;-80
2023/04/03 04:59:15;;;;;;;4.83;3.70;;;14.80;48.00;;;;;;5121624;27;20463;-80
2023/04/03 05:01:45;;;;;;;6.23;3.57;;;14.70;48.00;;;;;;5121740;27;20436;-79
2023/04/03 05:04:13;;;;;;;3.63;3.33;;;14.70;47.90;;;;;;5119511;27;20501;-80
2023/04/03 05:06:41;;;;;;;4.77;3.20;;;14.70;48.00;;;;;;5115256;28;20526;-80
2023/04/03 05:09:10;;;;;;;3.10;2.90;;;14.70;48.00;;;;;;5111114;28;20531;-79
2023/04/03 05:11:38;;;;;;;3.43;3.07;;;14.70;48.00;;;;;;5118636;28;20435;-80
2023/04/03 05:14:06;;;;;;;4.33;3.10;;;14.60;48.20;;;;;;5118612;27;20444;-80
2023/04/03 05:16:34;;;;;;;3.43;3.10;;;14.70;48.10;;;;;;5118613;27;20447;-80
2023/04/03 05:19:04;;;;;;;3.50;3.20;;;14.70;48.00;;;;;;5119668;27;20530;-80
2023/04/03 05:21:32;;;;;;;4.10;3.13;;;14.70;48.00;;;;;;5119712;27;20480;-80
2023/04/03 05:24:02;;;;;;;4.70;2.77;;;14.60;48.10;;;;;;5113334;27;20437;-81
2023/04/03 05:26:30;;;;;;;5.57;3.70;;;14.60;48.00;;;;;;5119221;27;20451;-81
2023/04/03 05:28:58;;;;;;;3.27;2.93;;;14.70;48.10;;;;;;5118867;27;20984;-81
2023/04/03 05:31:29;;;;;;;4.57;2.93;;;14.60;48.00;;;;;;5120362;28;20451;-80
2023/04/03 05:33:57;;;;;;;3.40;3.10;;;14.60;48.00;;;;;;5117648;28;20592;-79
2023/04/03 05:36:27;;;;;;;3.70;3.07;;;14.60;48.00;;;;;;5115563;27;20450;-79
2023/04/03 05:38:57;;;;;;;3.00;2.70;;;14.60;48.10;;;;;;5119225;28;20472;-81
2023/04/03 05:41:25;;;;;;;4.70;3.30;;;14.60;48.20;;;;;;5115149;27;20447;-81
2023/04/03 05:43:53;;;;;;;3.13;2.73;;;14.60;48.10;;;;;;5118547;27;20436;-80
2023/04/03 05:46:21;;;;;;;3.33;2.77;;;14.60;48.20;;;;;;5115757;27;20456;-80
2023/04/03 05:48:50;;;;;;;3.00;2.63;;;14.60;48.20;;;;;;5116532;27;20460;-80
2023/04/03 05:51:18;;;;;;;3.90;2.43;;;14.60;48.20;;;;;;5106234;28;20472;-80
2023/04/03 05:53:48;;;;;;;2.47;2.23;;;14.60;48.20;;;;;;5111163;28;20551;-80
2023/04/03 05:56:16;;;;;;;3.70;2.70;;;14.60;48.40;;;;;;5108316;28;20555;-81
2023/04/03 05:58:44;;;;;;;2.50;2.30;;;14.50;48.40;;;;;;5103108;28;20479;-80
2023/04/03 06:01:13;;;;;;;4.77;2.80;;;14.60;48.40;;;;;;5110077;28;20450;-80
2023/04/03 06:03:41;;;;;;;2.60;2.40;;;14.60;48.30;;;;;;5117303;27;20499;-80
2023/04/03 06:06:13;;;;;;;3.20;2.50;;;14.60;48.50;;;;;;5117231;28;20479;-80
2023/04/03 06:08:41;;;;;;;3.10;2.70;;;14.60;48.40;;;;;;5118004;28;20444;-80
2023/04/03 06:11:10;;;;;;;3.30;2.70;;;14.70;48.60;;;;;;5118041;28;20440;-80
2023/04/03 06:13:39;;;;;;;4.57;2.30;;;14.70;48.50;;;;;;5118689;28;20482;-80
2023/04/03 06:16:08;;;;;;;3.53;2.50;;;14.70;48.60;;;;;;5119085;28;20468;-80
2023/04/03 06:18:37;;;;;;;2.30;2.10;;;14.80;48.70;;;;;;5119640;27;20470;-80
2023/04/03 06:21:07;;;;;;;2.50;2.10;;;14.80;48.70;;;;;;5120729;27;20446;-80
2023/04/03 06:23:35;;;;;;;2.90;2.70;;;14.80;48.80;;;;;;5121110;27;20436;-81
2023/04/03 06:26:04;;;;;;;2.60;2.40;;;14.90;48.80;;;;;;5120375;28;20515;-80
2023/04/03 06:28:33;;;;;;;2.83;1.83;;;14.90;48.80;;;;;;5119394;27;20463;-80
2023/04/03 06:31:01;;;;;;;2.57;2.10;;;15.00;49.00;;;;;;5118394;27;20460;-80
2023/04/03 06:33:30;;;;;;;2.43;2.20;;;15.00;49.00;;;;;;5117972;27;20471;-80
2023/04/03 06:35:58;;;;;;;2.40;2.10;;;15.10;49.20;;;;;;5120022;27;20454;-81
2023/04/03 06:38:26;;;;;;;2.07;1.63;;;15.10;49.20;;;;;;5119380;28;20456;-81
2023/04/03 06:40:55;;;;;;;2.57;2.37;;;15.10;49.50;;;;;;5114043;27;21004;-81
2023/04/03 06:43:24;;;;;;;2.40;2.20;;;15.20;49.50;;;;;;5121304;27;20443;-81
2023/04/03 06:45:54;;;;;;;3.47;2.47;;;15.20;49.50;;;;;;5117209;28;20486;-81
2023/04/03 06:48:22;;;;;;;2.33;2.03;;;15.30;49.40;;;;;;5120284;27;20546;-81
2023/04/03 06:50:50;;;;;;;2.47;2.27;;;15.30;49.90;;;;;;5120002;27;20440;-81
2023/04/03 06:53:18;;;;;;;2.30;2.10;;;15.30;49.70;;;;;;5119738;27;20502;-81
2023/04/03 06:55:47;;;;;;;2.37;2.17;;;15.40;49.90;;;;;;5118514;28;20526;-81
2023/04/03 06:58:17;;;;;;;2.70;2.37;;;15.50;49.90;;;;;;5121542;28;20470;-81
2023/04/03 07:00:47;;;;;;;2.20;2.00;;;15.50;50.00;;;;;;5120398;27;20447;-81
2023/04/03 07:03:17;;;;;;;2.10;1.90;;;15.60;50.00;;;;;;5118633;28;20460;-81
2023/04/03 07:05:45;;;;;;;2.17;1.87;;;15.60;50.20;;;;;;5117036;27;20515;-81
2023/04/03 07:08:13;;;;;;;1.93;1.83;;;15.70;50.20;;;;;;5111213;28;20472;-81
2023/04/03 07:10:41;;;;;;;2.13;1.83;;;15.70;50.30;;;;;;5121293;27;20537;-80
2023/04/03 07:13:10;;;;;;;2.00;1.80;;;15.70;50.40;;;;;;5121000;28;20474;-80
2023/04/03 07:15:38;;;;;;;1.80;1.70;;;15.80;50.60;;;;;;5116618;28;20534;-80
2023/04/03 07:18:07;;;;;;;2.23;2.10;;;15.90;50.60;;;;;;5120675;28;20542;-80
2023/04/03 07:20:37;;;;;;;1.97;1.70;;;15.90;50.70;;;;;;5119549;27;20507;-80
2023/04/03 07:23:05;;;;;;;3.50;2.23;;;16.00;50.70;;;;;;5113925;27;20436;-80
2023/04/03 07:25:34;;;;;;;1.97;1.87;;;16.00;50.80;;;;;;5120769;28;20450;-80
2023/04/03 07:28:03;;;;;;;1.73;1.63;;;16.10;51.00;;;;;;5127628;28;20460;-80
2023/04/03 07:30:31;;;;;;;2.43;1.70;;;16.20;50.90;;;;;;5101670;28;20456;-81
2023/04/03 07:33:00;;;;;;;1.87;1.77;;;16.20;51.30;;;;;;5117088;28;20440;-82
2023/04/03 07:35:29;;;;;;;4.80;2.40;;;16.30;51.20;;;;;;5119042;27;20447;-80
2023/04/03 07:37:58;;;;;;;9.40;2.80;;;16.30;49.50;;;;;;5114547;28;20464;-81
2023/04/03 07:40:27;;;;;;;6.50;3.40;;;15.40;47.30;;;;;;5105565;27;20436;-80
2023/04/03 07:42:56;;;;;;;10.03;3.77;;;14.30;41.90;;;;;;5113872;27;20448;-80
2023/04/03 07:45:24;;;;;;;10.47;3.60;;;13.70;43.00;;;;;;5116085;27;20464;-80
2023/04/03 07:47:53;;;;;;;12.43;5.97;;;13.80;45.00;;;;;;5115145;27;20520;-79
2023/04/03 07:50:21;;;;;;;20.30;9.23;;;13.70;42.20;;;;;;5106602;28;20455;-79
2023/04/03 07:52:50;;;;;;;6.30;3.10;;;13.60;41.60;;;;;;5111996;28;20448;-80
2023/04/03 07:55:20;;;;;;;15.23;3.10;;;12.80;38.00;;;;;;5107632;28;20471;-82
2023/04/03 07:57:48;;;;;;;10.90;3.40;;;12.20;40.30;;;;;;5107216;28;20454;-81
2023/04/03 08:00:19;;;;;;;6.80;3.20;;;12.60;40.60;;;;;;5108851;28;20501;-81
2023/04/03 08:02:50;;;;;;;8.10;3.13;;;12.40;39.60;;;;;;5108985;27;20444;-81
2023/04/03 08:05:18;;;;;;;6.03;2.73;;;13.00;43.40;;;;;;5118492;27;20989;-84
2023/04/03 08:07:47;;;;;;;6.33;3.07;;;14.00;42.90;;;;;;5120539;27;20464;-83
2023/04/03 08:10:16;;;;;;;4.97;3.00;;;14.80;42.00;;;;;;5120234;28;20440;-83
2023/04/03 08:12:46;;;;;;;5.10;2.77;;;15.40;41.40;;;;;;5119383;27;20451;-83
2023/04/03 08:15:14;;;;;;;5.77;3.17;;;15.80;41.00;;;;;;5114064;28;20475;-83
2023/04/03 08:17:42;;;;;;;11.10;3.13;;;16.20;41.00;;;;;;5114873;28;20460;-84
2023/04/03 08:20:11;;;;;;;2.80;2.50;;;16.50;40.90;;;;;;5104416;27;20581;-84
2023/04/03 08:22:39;;;;;;;4.57;2.43;;;16.90;41.20;;;;;;5114558;28;20468;-84
2023/04/03 08:25:08;;;;;;;6.63;2.60;;;17.10;41.20;;;;;;5117848;28;20447;-83
2023/04/03 08:27:36;;;;;;;5.30;2.40;;;17.50;41.60;;;;;;5116022;27;20475;-82
2023/04/03 08:30:07;;;;;;;5.23;2.10;;;17.70;41.70;;;;;;5111922;28;20446;-84
2023/04/03 08:32:35;;;;;;;4.70;2.73;;;18.00;41.90;;;;;;5114241;27;20441;-84
2023/04/03 08:35:04;;;;;;;9.67;2.70;;;18.30;42.10;;;;;;5116089;28;20467;-84
2023/04/03 08:37:32;;;;;;;9.60;2.70;;;18.60;42.20;;;;;;5119257;28;20471;-83
2023/04/03 08:40:00;;;;;;;2.70;2.10;;;18.80;42.50;;;;;;5118490;27;20448;-83
2023/04/03 08:42:37;;;;;;;4.23;2.10;;;19.10;42.60;;;;;;5121066;28;20446;-84
2023/04/03 08:45:11;;;;;;;5.87;2.30;;;19.30;42.60;;;;;;5120264;28;20436;-84
2023/04/03 08:47:39;;;;;;;5.47;2.03;;;19.60;42.80;;;;;;5115102;27;20459;-84
2023/04/03 08:50:08;;;;;;;5.37;2.03;;;19.80;43.10;;;;;;5119075;27;20439;-84
2023/04/03 08:52:39;;;;;;;4.30;1.70;;;20.00;43.10;;;;;;5115804;27;20520;-84
2023/04/03 08:55:08;;;;;;;7.83;2.00;;;20.30;43.20;;;;;;5119493;28;20474;-84
2023/04/03 08:57:45;;;;;;;4.20;2.20;;;20.50;43.40;;;;;;5119161;28;20464;-83
2023/04/03 09:00:19;;;;;;;4.43;1.70;;;20.70;43.20;;;;;;5119869;27;20443;-83
2023/04/03 09:02:48;;;;;;;2.53;1.70;;;20.90;43.40;;;;;;5117808;27;20523;-83
2023/04/03 09:05:17;;;;;;;3.87;1.80;;;21.20;43.60;;;;;;5111166;27;20523;-83
2023/04/03 09:07:47;;;;;;;3.50;1.90;;;21.40;43.60;;;;;;5120577;27;20476;-83
2023/04/03 09:10:18;;;;;;;2.50;1.93;;;21.60;43.60;;;;;;5116963;27;20460;-82
2023/04/03 09:12:47;;;;;;;5.83;1.77;;;21.80;43.70;;;;;;5116990;27;20450;-81
2023/04/03 09:15:19;;;;;;;8.93;2.57;;;22.10;43.70;;;;;;5119174;27;20546;-83
2023/04/03 09:18:05;;;;;;;1.97;1.70;;;22.30;43.70;;;;;;5117460;27;20591;-82
2023/04/03 09:20:44;;;;;;;6.90;2.50;;;22.50;43.80;;;;;;5117969;27;20471;-82
2023/04/03 09:23:30;;;;;;;1.80;1.67;;;22.60;43.70;;;;;;5114980;27;20451;-79
2023/04/03 09:26:03;;;;;;;2.90;1.50;;;22.90;43.90;;;;;;5108823;28;20438;-79
2023/04/03 09:28:32;;;;;;;2.60;1.80;;;23.10;43.90;;;;;;5113437;28;20451;-78
2023/04/03 09:31:21;;;;;;;3.60;2.00;;;23.30;44.00;;;;;;5103772;27;20459;-81
2023/04/03 09:33:50;;;;;;;3.43;1.80;;;23.50;43.80;;;;;;5115052;27;20515;-79
2023/04/03 09:36:42;;;;;;;5.30;2.10;;;23.80;44.00;;;;;;5116397;28;20438;-81
2023/04/03 09:39:13;;;;;;;7.00;1.40;;;24.00;43.90;;;;;;5103304;27;20521;-81
2023/04/03 09:41:42;;;;;;;2.80;1.83;;;24.20;43.80;;;;;;5110265;28;20489;-80
2023/04/03 09:44:22;;;;;;;3.90;1.70;;;24.60;43.90;;;;;;5112642;28;20410;-79
2023/04/03 09:46:51;;;;;;;3.23;1.40;;;24.80;43.70;;;;;;5105322;28;20528;-81
2023/04/03 09:49:19;;;;;;;1.57;1.47;;;25.00;43.60;;;;;;5114561;28;20460;-80
2023/04/03 09:51:47;;;;;;;5.10;2.07;;;25.20;43.60;;;;;;5113992;28;20430;-81
2023/04/03 09:54:37;;;;;;;2.93;1.53;;;25.40;43.40;;;;;;5113370;28;20452;-81
2023/04/03 09:57:11;;;;;;;2.10;1.90;;;25.60;43.20;;;;;;5109654;28;20456;-81
2023/04/03 09:59:48;;;;;;;1.80;1.67;;;25.80;43.00;;;;;;5112990;27;20449;-83
2023/04/03 10:02:35;;;;;;;3.33;1.67;;;26.00;42.70;;;;;;5117608;28;20456;-83
2023/04/03 10:05:03;;;;;;;2.93;1.57;;;26.20;42.60;;;;;;5114363;28;20449;-82
2023/04/03 10:07:36;;;;;;;1.63;1.53;;;26.40;42.50;;;;;;5117923;28;20475;-81
2023/04/03 10:10:17;;;;;;;1.50;1.40;;;26.70;42.40;;;;;;5115286;28;20450;-80
2023/04/03 10:12:46;;;;;;;1.83;1.60;;;26.90;42.30;;;;;;5110676;28;20426;-81
2023/04/03 10:15:14;;;;;;;2.30;1.30;;;27.10;42.10;;;;;;5112855;28;20471;-79
2023/04/03 10:17:51;;;;;;;1.77;1.30;;;27.30;42.00;;;;;;5113782;28;20487;-79
2023/04/03 10:20:27;;;;;;;2.10;1.63;;;27.60;41.80;;;;;;5112240;27;20436;-80
2023/04/03 10:23:01;;;;;;;1.83;1.10;;;27.80;41.50;;;;;;5114827;27;20441;-80
2023/04/03 10:25:31;;;;;;;2.17;1.27;;;28.00;41.40;;;;;;5108386;27;20420;-81
2023/04/03 10:28:00;;;;;;;1.70;1.50;;;28.10;41.30;;;;;;5115550;27;20506;-81
2023/04/03 10:30:33;;;;;;;1.60;1.50;;;28.40;41.10;;;;;;5114400;28;20433;-80
2023/04/03 10:33:14;;;;;;;3.50;1.30;;;28.60;41.00;;;;;;5113862;28;20430;-79
2023/04/03 10:35:45;;;;;;;1.67;1.57;;;28.80;40.70;;;;;;5118141;27;20442;-80
2023/04/03 10:38:16;;;;;;;1.47;1.37;;;29.00;40.50;;;;;;5127487;27;20542;-79
2023/04/03 10:40:48;;;;;;;1.83;1.73;;;29.20;40.30;;;;;;5108944;27;20492;-80
2023/04/03 10:43:18;;;;;;;4.83;1.23;;;29.40;40.20;;;;;;5114793;27;20455;-77
2023/04/03 10:45:52;;;;;;;3.33;1.30;;;29.50;37.10;;;;;;5108319;28;20444;-77
2023/04/03 10:48:31;;;;;;;10.70;1.30;;;28.90;33.80;;;;;;5109920;28;20495;-78
2023/04/03 10:51:01;;;;;;;6.27;1.50;;;28.60;34.20;;;;;;5114572;28;20439;-74
2023/04/03 10:53:32;;;;;;;8.03;1.37;;;28.40;33.20;;;;;;5112286;28;20424;-80
2023/04/03 10:56:03;;;;;;;2.00;1.03;;;28.30;33.40;;;;;;5112280;28;20472;-80
2023/04/03 10:58:35;;;;;;;8.50;1.60;;;28.20;33.30;;;;;;5117838;28;20418;-80
2023/04/03 11:01:06;;;;;;;10.50;1.57;;;28.10;33.60;;;;;;5102883;28;20448;-80
2023/04/03 11:03:37;;;;;;;8.57;1.40;;;28.00;33.60;;;;;;5114447;27;20432;-79
2023/04/03 11:06:06;;;;;;;5.60;1.47;;;28.00;33.60;;;;;;5115791;27;20447;-81
2023/04/03 11:08:37;;;;;;;6.63;1.60;;;27.90;33.70;;;;;;5117514;27;20467;-78
2023/04/03 11:11:07;;;;;;;7.50;1.83;;;27.80;33.80;;;;;;5123967;27;20435;-81
2023/04/03 11:13:36;;;;;;;9.23;1.53;;;27.80;33.90;;;;;;5116676;27;20458;-80
2023/04/03 11:16:05;;;;;;;4.57;1.77;;;27.80;33.70;;;;;;5121430;27;20442;-81
2023/04/03 11:18:36;;;;;;;6.70;1.50;;;27.80;33.70;;;;;;5118949;27;20463;-81
2023/04/03 11:21:07;;;;;;;5.43;1.47;;;27.70;33.50;;;;;;5117589;28;20432;-80
2023/04/03 11:23:35;;;;;;;2.67;1.27;;;27.70;33.40;;;;;;5121848;28;20403;-79
2023/04/03 11:26:17;;;;;;;3.13;1.57;;;27.70;33.40;;;;;;5120148;28;20415;-81
2023/04/03 11:28:46;;;;;;;5.10;1.57;;;27.70;33.30;;;;;;5119186;28;20442;-80
2023/04/03 11:31:21;;;;;;;6.90;1.53;;;27.70;33.40;;;;;;5120069;27;20419;-81
2023/04/03 11:33:55;;;;;;;4.27;1.57;;;27.80;33.40;;;;;;5117768;28;20468;-81
2023/04/03 11:36:25;;;;;;;4.13;1.80;;;27.70;33.30;;;;;;5120763;28;20525;-81
2023/04/03 11:39:03;;;;;;;8.20;1.70;;;27.80;33.30;;;;;;5118900;28;20465;-80
2023/04/03 11:41:32;;;;;;;3.13;1.20;;;27.80;33.30;;;;;;5118150;27;20414;-81
2023/04/03 11:44:01;;;;;;;1.53;1.20;;;27.80;33.20;;;;;;5116493;27;20458;-81
2023/04/03 11:46:52;;;;;;;2.50;1.30;;;27.80;33.10;;;;;;5121196;27;20451;-80
2023/04/03 11:49:57;;;;;;;2.60;1.80;;;27.80;33.00;;;;;;5121175;28;20448;-81
2023/04/03 11:52:58;;;;;;;3.93;1.03;;;27.90;33.00;;;;;;5115415;28;20406;-79
2023/04/03 11:56:26;;;;;;;1.60;1.07;;;27.90;32.90;;;;;;5117325;28;20418;-80
2023/04/03 11:59:18;;;;;;;2.50;1.20;;;27.90;32.80;;;;;;5110634;28;20474;-78
2023/04/03 12:01:46;;;;;;;2.30;1.20;;;27.90;32.80;;;;;;5113260;28;20419;-80
2023/04/03 12:04:15;;;;;;;3.73;1.33;;;28.00;33.00;;;;;;5108863;28;20499;-79
2023/04/03 12:07:16;;;;;;;1.33;1.13;;;28.00;32.80;;;;;;5119559;28;20423;-77
2023/04/03 12:10:16;;;;;;;2.87;1.30;;;28.10;32.80;;;;;;5115164;28;20413;-80
2023/04/03 12:12:58;;;;;;;2.50;1.30;;;28.10;32.90;;;;;;5115522;28;20450;-81
2023/04/03 12:15:54;;;;;;;1.43;1.30;;;28.10;32.80;;;;;;5113894;28;20444;-80
2023/04/03 12:18:58;;;;;;;1.73;1.47;;;28.10;32.70;;;;;;5120879;27;20431;-79
2023/04/03 12:21:41;;;;;;;1.90;1.30;;;28.20;32.90;;;;;;5111443;28;20496;-80
2023/04/03 12:37:31;;;;;;;4.40;1.10;;;28.10;32.70;;;;;;5087849;27;1284912;-77
2023/04/03 12:40:05;;;;;;;3.53;1.20;;;28.20;32.40;;;;;;5085423;28;20426;-79
2023/04/03 12:42:56;;;;;;;2.60;1.10;;;28.30;32.20;;;;;;5094720;28;20446;-80
2023/04/03 12:45:26;;;;;;;1.90;1.03;;;28.30;32.20;;;;;;5094955;28;20456;-79
2023/04/03 12:47:55;;;;;;;2.10;0.90;;;28.30;32.00;;;;;;5097635;28;20877;-80
2023/04/03 12:50:24;;;;;;;3.83;1.20;;;28.30;32.10;;;;;;5097779;28;20436;-79
2023/04/03 12:52:58;;;;;;;2.60;1.30;;;28.30;32.20;;;;;;5095897;28;20528;-78
2023/04/03 12:55:26;;;;;;;2.17;1.03;;;28.40;32.10;;;;;;5082020;28;20443;-80
2023/04/03 12:57:54;;;;;;;1.40;1.10;;;28.40;32.00;;;;;;5096579;28;20594;-81
2023/04/03 13:00:28;;;;;;;1.30;1.10;;;28.30;31.90;;;;;;5087427;28;20456;-81
2023/04/03 13:02:56;;;;;;;1.33;1.00;;;28.40;32.00;;;;;;5094944;28;20420;-80
2023/04/03 13:05:24;;;;;;;4.23;1.20;;;28.30;31.70;;;;;;5089762;28;20474;-80
2023/04/03 13:07:56;;;;;;;2.33;1.10;;;28.40;31.60;;;;;;5098254;28;20539;-81
2023/04/03 13:10:25;;;;;;;2.73;1.10;;;28.40;31.90;;;;;;5088650;28;20411;-80
2023/04/03 13:12:54;;;;;;;1.43;1.00;;;28.40;31.70;;;;;;5091631;28;20428;-80
2023/04/03 13:15:24;;;;;;;1.67;1.23;;;28.40;31.70;;;;;;5085217;28;20411;-81